Kilcolgan, Ireland
Current Conditions -  °F | °C
As of 10:00 PM on Friday 31 Oct 2014 (Local Time) from EINN Reporting Station
Clear Clear  
Wind Chill: 52°   Ceiling: Unl
Heat Index: 52°   Visibility: 6mi
Dew Point: 50°   Wind: 9mph
Humidity: 94%   Direction: 200°SSW
Pressure: 29.74"   Gusts: NA
Location:  53.2°N, 8.87°W
Report Text: EINN 312200Z 20008KT CAVOK 11/10 Q1007 NOSIG
Loading
Personal Weather Stations






























Interactive Weather Map New forecast layout! Learn more

10-Day Weather Forecast

Advertisements
Track Severe Weather on mobile